createdAt,value
2023-01-02T00:00:37.805Z,15.61
2023-01-02T00:05:39.482Z,15.54
2023-01-02T00:10:41.108Z,15.57
2023-01-02T00:15:42.792Z,16.11
2023-01-02T00:20:44.494Z,16.52
2023-01-02T00:25:48.574Z,16.57
2023-01-02T00:30:50.207Z,16.67
2023-01-02T00:35:51.814Z,16.82
2023-01-02T00:40:53.422Z,16.86
2023-01-02T00:45:55.989Z,16.75
2023-01-02T00:50:57.620Z,16.32
2023-01-02T00:55:59.249Z,16.33
2023-01-02T01:01:00.955Z,16.35
2023-01-02T01:06:09.887Z,16.12
2023-01-02T01:11:15.488Z,15.99
2023-01-02T01:16:19.255Z,16.88
2023-01-02T01:21:22.342Z,16.93
2023-01-02T01:26:24.293Z,17.12
2023-01-02T01:31:25.943Z,17.15
2023-01-02T01:36:27.590Z,17.43
2023-01-02T01:41:29.166Z,17.42
2023-01-02T01:46:39.372Z,17.26
2023-01-02T01:51:50.582Z,17.24
2023-01-02T01:56:58.969Z,17.13
2023-01-02T02:02:00.984Z,16.84
2023-01-02T02:07:03.072Z,16.92
2023-01-02T02:12:06.808Z,17.04
2023-01-02T02:17:34.739Z,17.23
2023-01-02T02:23:04.133Z,17.36
2023-01-02T02:28:36.579Z,17.36
2023-01-02T02:33:49.403Z,17.17
2023-01-02T02:38:58.931Z,17.17
2023-01-02T02:44:03.262Z,16.84
2023-01-02T02:49:13.957Z,16.49
2023-01-02T02:54:22.927Z,16.60
2023-01-02T02:59:24.600Z,16.94
2023-01-02T03:04:26.272Z,16.87
2023-01-02T03:10:21.707Z,16.77
2023-01-02T03:15:28.792Z,16.74
2023-01-02T03:20:39.159Z,17.15
2023-01-02T03:25:42.938Z,17.10
2023-01-02T03:30:47.640Z,17.31
2023-01-02T03:35:58.021Z,17.15
2023-01-02T03:41:09.808Z,17.00
2023-01-02T03:46:20.223Z,17.33
2023-01-02T03:51:22.051Z,17.57
2023-01-02T03:56:45.407Z,17.69
2023-01-02T04:01:51.285Z,17.70
2023-01-02T04:06:59.819Z,17.80
2023-01-02T04:12:11.840Z,17.81
2023-01-02T04:17:16.384Z,17.64
2023-01-02T04:22:24.494Z,17.86
2023-01-02T04:27:33.344Z,17.87
2023-01-02T04:32:41.395Z,17.71
2023-01-02T04:37:44.061Z,17.56
2023-01-02T04:42:45.773Z,17.45
2023-01-02T04:47:48.902Z,17.27
2023-01-02T04:52:50.503Z,17.13
2023-01-02T04:57:52.114Z,17.14
2023-01-02T05:02:53.807Z,17.07
2023-01-02T05:07:55.520Z,17.06
2023-01-02T05:13:00.181Z,17.20
2023-01-02T05:18:01.782Z,17.10
2023-01-02T05:23:21.655Z,16.96
2023-01-02T05:28:23.297Z,16.88
2023-01-02T05:33:24.906Z,16.75
2023-01-02T05:38:26.519Z,16.70
2023-01-02T05:43:31.144Z,16.49
2023-01-02T05:48:32.766Z,16.18
2023-01-02T05:53:35.102Z,16.10
2023-01-02T05:58:39.191Z,15.97
2023-01-02T06:03:45.031Z,16.10
2023-01-02T06:08:46.665Z,16.15
2023-01-02T06:13:48.406Z,16.07
2023-01-02T06:18:50.730Z,16.22
2023-01-02T06:23:57.126Z,16.15
2023-01-02T06:28:58.892Z,16.08
2023-01-02T06:34:02.315Z,16.14
2023-01-02T06:39:04.278Z,16.06
2023-01-02T06:44:05.959Z,16.02
2023-01-02T06:49:07.599Z,16.03
2023-01-02T06:54:09.206Z,16.06
2023-01-02T06:59:10.891Z,16.00
2023-01-02T07:04:16.358Z,15.84
2023-01-02T07:09:17.995Z,15.82
2023-01-02T07:14:19.759Z,15.86
2023-01-02T07:19:21.432Z,15.71
2023-01-02T07:24:23.029Z,15.51
2023-01-02T07:29:24.658Z,15.41
2023-01-02T07:34:26.315Z,15.35
2023-01-02T07:39:27.987Z,14.47
2023-01-02T07:44:29.646Z,14.00
2023-01-02T07:49:31.381Z,13.78
2023-01-02T07:54:33.006Z,13.78
2023-01-02T07:59:34.627Z,13.62
2023-01-02T08:04:36.603Z,13.60
2023-01-02T08:09:38.241Z,13.64
2023-01-02T08:14:39.853Z,13.42
2023-01-02T08:19:41.461Z,13.39
2023-01-02T08:24:43.057Z,13.28
2023-01-02T08:29:45.751Z,13.17
2023-01-02T08:34:47.449Z,13.20
2023-01-02T08:39:49.064Z,12.79
2023-01-02T08:44:50.898Z,13.00
2023-01-02T08:49:52.487Z,13.04
2023-01-02T08:54:54.248Z,12.94
2023-01-02T08:59:55.987Z,12.97
2023-01-02T09:04:59.025Z,12.86
2023-01-02T09:10:00.752Z,13.01
2023-01-02T09:15:02.917Z,12.85
2023-01-02T09:20:05.304Z,12.97
2023-01-02T09:25:07.525Z,13.13
2023-01-02T09:30:09.470Z,13.11
2023-01-02T09:35:11.109Z,13.07
2023-01-02T09:40:14.570Z,13.03
2023-01-02T09:45:16.545Z,13.23
2023-01-02T09:50:29.652Z,13.39
2023-01-02T09:56:05.457Z,14.00
2023-01-02T10:01:18.821Z,14.08
2023-01-02T10:06:25.343Z,13.71
2023-01-02T10:11:53.472Z,13.61
2023-01-02T10:16:58.683Z,13.61
2023-01-02T10:22:01.909Z,13.79
2023-01-02T10:27:09.043Z,13.92
2023-01-02T10:32:17.488Z,14.05
2023-01-02T10:37:19.376Z,14.06
2023-01-02T10:42:22.124Z,14.05
2023-01-02T10:47:39.713Z,14.14
2023-01-02T10:53:04.258Z,13.89
2023-01-02T10:58:35.484Z,14.00
2023-01-02T11:03:37.190Z,14.11
2023-01-02T11:08:40.572Z,13.99
2023-01-02T11:13:51.949Z,13.90
2023-01-02T11:18:58.531Z,13.67
2023-01-02T11:24:03.137Z,14.04
2023-01-02T11:29:13.203Z,14.00
2023-01-02T11:34:23.834Z,14.09
2023-01-02T11:39:25.532Z,13.94
2023-01-02T11:44:49.154Z,14.15
2023-01-02T11:49:50.984Z,14.53
2023-01-02T11:54:55.286Z,14.09
2023-01-02T12:00:01.382Z,14.99
2023-01-02T12:05:11.123Z,16.17
2023-01-02T12:10:41.435Z,17.23
2023-01-02T12:16:11.546Z,17.31
2023-01-02T12:21:35.401Z,19.09
2023-01-02T12:26:52.075Z,18.14
2023-01-02T12:32:35.631Z,19.39
2023-01-02T12:37:50.398Z,19.25
2023-01-02T12:43:16.100Z,18.93
2023-01-02T12:48:48.089Z,17.27
2023-01-02T12:54:20.971Z,17.48
2023-01-02T12:59:41.279Z,17.36
2023-01-02T13:04:49.895Z,17.38
2023-01-02T13:09:53.571Z,17.33
2023-01-02T13:15:08.617Z,17.29
2023-01-02T13:20:34.085Z,17.23
2023-01-02T13:25:42.085Z,17.25
2023-01-02T13:31:00.927Z,17.27
2023-01-02T13:36:38.131Z,17.26
2023-01-02T13:42:09.735Z,17.13
2023-01-02T13:47:25.562Z,17.06
2023-01-02T13:52:31.893Z,17.00
2023-01-02T13:57:33.679Z,16.98
2023-01-02T14:02:35.456Z,17.05
2023-01-02T14:07:43.229Z,17.17
2023-01-02T14:12:57.545Z,17.31
2023-01-02T14:18:04.713Z,17.41
2023-01-02T14:23:08.900Z,17.44
2023-01-02T14:28:26.279Z,17.38
2023-01-02T14:33:34.770Z,17.24
2023-01-02T14:38:42.856Z,17.17
2023-01-02T14:43:47.153Z,17.04
2023-01-02T14:48:55.773Z,16.95
2023-01-02T14:54:08.233Z,16.88
2023-01-02T14:59:18.777Z,16.76
2023-01-02T15:04:26.284Z,16.85
2023-01-02T15:09:44.103Z,16.64
2023-01-02T15:14:46.055Z,16.51
2023-01-02T15:19:48.769Z,16.34
2023-01-02T15:24:53.393Z,16.30
2023-01-02T15:29:58.909Z,16.36
2023-01-02T15:35:23.587Z,16.10
2023-01-02T15:40:34.388Z,16.16
2023-01-02T15:45:37.777Z,16.00
2023-01-02T15:50:40.981Z,16.15
2023-01-02T15:55:42.731Z,16.09
2023-01-02T16:00:45.855Z,16.10
2023-01-02T16:05:55.033Z,15.95
2023-01-02T16:11:02.513Z,15.85
2023-01-02T16:16:15.574Z,15.84
2023-01-02T16:21:18.932Z,15.77
2023-01-02T16:26:27.639Z,15.74
2023-01-02T16:31:29.475Z,15.69
2023-01-02T16:36:31.181Z,15.61
2023-01-02T16:41:41.045Z,15.55
2023-01-02T16:46:47.372Z,15.44
2023-01-02T16:51:52.431Z,15.39
2023-01-02T16:56:54.061Z,15.59
2023-01-02T17:01:55.742Z,15.41
2023-01-02T17:06:57.472Z,15.41
2023-01-02T17:12:01.880Z,15.13
2023-01-02T17:17:03.571Z,15.24
2023-01-02T17:22:05.196Z,15.15
2023-01-02T17:27:06.801Z,14.84
2023-01-02T17:32:08.589Z,14.72
2023-01-02T17:37:10.332Z,14.65
2023-01-02T17:42:11.949Z,15.20
2023-01-02T17:47:57.008Z,15.05
2023-01-02T17:52:36.127Z,15.08
2023-01-02T17:57:39.524Z,15.18
2023-01-02T18:02:42.168Z,15.16
2023-01-02T18:07:43.864Z,15.13
2023-01-02T18:12:45.492Z,15.12
2023-01-02T18:17:48.332Z,14.99
2023-01-02T18:22:51.113Z,15.07
2023-01-02T18:28:12.061Z,14.94
2023-01-02T18:33:17.432Z,15.05
2023-01-02T18:38:28.809Z,15.02
2023-01-02T18:43:37.805Z,14.97
2023-01-02T18:48:40.150Z,14.91
2023-01-02T18:53:48.932Z,14.89
2023-01-02T18:59:08.700Z,14.95
2023-01-02T19:04:18.931Z,14.86
2023-01-02T19:09:35.369Z,14.76
2023-01-02T19:14:42.493Z,14.63
2023-01-02T19:19:44.734Z,14.65
2023-01-02T19:24:46.911Z,14.67
2023-01-02T19:29:49.060Z,14.68
2023-01-02T19:34:56.846Z,14.82
2023-01-02T19:40:02.162Z,14.69
2023-01-02T19:45:08.328Z,14.82
2023-01-02T19:50:17.312Z,14.80
2023-01-02T19:55:19.403Z,14.80
2023-01-02T20:00:21.293Z,14.78
2023-01-02T20:05:23.452Z,14.71
2023-01-02T20:10:25.785Z,14.69
2023-01-02T20:15:28.229Z,14.70
2023-01-02T20:20:30.120Z,14.71
2023-01-02T20:25:31.745Z,13.59
2023-01-02T20:30:33.444Z,12.34
2023-01-02T20:35:35.127Z,11.72
2023-01-02T20:40:36.766Z,11.48
2023-01-02T20:45:38.381Z,11.29
2023-01-02T20:50:40.024Z,10.85
2023-01-02T20:55:41.712Z,10.38
2023-01-02T21:00:43.438Z,10.26
2023-01-02T21:05:45.263Z,10.23
2023-01-02T21:10:47.227Z,10.20
2023-01-02T21:15:51.394Z,10.15
2023-01-02T21:20:58.551Z,10.17
2023-01-02T21:26:00.222Z,10.15
2023-01-02T21:31:02.386Z,10.10
2023-01-02T21:36:08.362Z,10.05
2023-01-02T21:41:29.649Z,10.04
2023-01-02T21:46:31.405Z,10.02
2023-01-02T21:51:33.304Z,10.01
2023-01-02T21:56:34.987Z,10.00
2023-01-02T22:01:36.755Z,9.99
2023-01-02T22:07:04.316Z,9.87
2023-01-02T22:12:02.121Z,9.79
2023-01-02T22:17:07.311Z,9.73
2023-01-02T22:22:09.623Z,9.73
2023-01-02T22:27:15.353Z,9.69
2023-01-02T22:32:17.780Z,9.87
2023-01-02T22:37:22.679Z,10.02
2023-01-02T22:43:03.819Z,10.21
2023-01-02T22:48:15.752Z,10.25
2023-01-02T22:53:30.223Z,10.40
2023-01-02T22:58:31.859Z,10.51
2023-01-02T23:03:38.825Z,10.55
2023-01-02T23:08:40.615Z,10.57
2023-01-02T23:13:43.341Z,10.54
2023-01-02T23:19:03.537Z,10.45
2023-01-02T23:24:06.684Z,10.41
2023-01-02T23:29:09.230Z,10.39
2023-01-02T23:34:12.767Z,10.30
2023-01-02T23:39:19.593Z,10.30
2023-01-02T23:44:22.563Z,10.31
2023-01-02T23:49:24.543Z,10.25
2023-01-02T23:54:26.285Z,10.14
2023-01-02T23:59:27.938Z,9.98
